sensor_id;sensor_type;location;lat;lon;timestamp;pressure;altitude;pressure_sealevel;temperature;humidity
3664;BME280;1848;51.042;7.066;2022-07-03T00:01:50;100435.66;;;18.29;63.96
3664;BME280;1848;51.042;7.066;2022-07-03T00:04:16;100429.56;;;18.22;63.21
3664;BME280;1848;51.042;7.066;2022-07-03T00:06:44;100430.97;;;18.25;62.43
3664;BME280;1848;51.042;7.066;2022-07-03T00:09:11;100425.53;;;18.25;63.14
3664;BME280;1848;51.042;7.066;2022-07-03T00:11:38;100420.53;;;18.16;62.95
3664;BME280;1848;51.042;7.066;2022-07-03T00:14:05;100429.56;;;18.22;64.43
3664;BME280;1848;51.042;7.066;2022-07-03T00:16:31;100433.81;;;18.18;66.09
3664;BME280;1848;51.042;7.066;2022-07-03T00:18:58;100428.53;;;18.11;67.64
3664;BME280;1848;51.042;7.066;2022-07-03T00:21:33;100429.47;;;17.93;72.32
3664;BME280;1848;51.042;7.066;2022-07-03T00:24:04;100439.69;;;17.79;73.77
3664;BME280;1848;51.042;7.066;2022-07-03T00:26:36;100438.41;;;17.70;75.40
3664;BME280;1848;51.042;7.066;2022-07-03T00:29:04;100432.75;;;17.60;76.66
3664;BME280;1848;51.042;7.066;2022-07-03T00:31:33;100440.75;;;17.55;77.30
3664;BME280;1848;51.042;7.066;2022-07-03T00:34:01;100434.75;;;17.53;77.82
3664;BME280;1848;51.042;7.066;2022-07-03T00:36:46;100435.91;;;17.45;80.28
3664;BME280;1848;51.042;7.066;2022-07-03T00:39:13;100442.72;;;17.36;79.28
3664;BME280;1848;51.042;7.066;2022-07-03T00:41:40;100420.22;;;17.12;80.12
3664;BME280;1848;51.042;7.066;2022-07-03T00:44:07;100442.31;;;17.20;80.43
3664;BME280;1848;51.042;7.066;2022-07-03T00:46:37;100442.19;;;17.15;80.94
3664;BME280;1848;51.042;7.066;2022-07-03T00:49:08;100442.28;;;17.08;81.65
3664;BME280;1848;51.042;7.066;2022-07-03T00:51:38;100451.34;;;17.02;82.41
3664;BME280;1848;51.042;7.066;2022-07-03T00:54:07;100435.66;;;16.93;81.73
3664;BME280;1848;51.042;7.066;2022-07-03T00:56:38;100444.00;;;16.91;81.87
3664;BME280;1848;51.042;7.066;2022-07-03T00:59:04;100442.34;;;16.90;80.24
3664;BME280;1848;51.042;7.066;2022-07-03T01:01:32;100440.72;;;16.89;82.92
3664;BME280;1848;51.042;7.066;2022-07-03T01:06:33;100427.06;;;16.84;82.29
3664;BME280;1848;51.042;7.066;2022-07-03T01:09:03;100425.31;;;16.89;82.51
3664;BME280;1848;51.042;7.066;2022-07-03T01:11:48;100422.47;;;16.84;81.11
3664;BME280;1848;51.042;7.066;2022-07-03T01:14:28;100411.59;;;16.73;80.99
3664;BME280;1848;51.042;7.066;2022-07-03T01:17:03;100417.38;;;16.76;82.89
3664;BME280;1848;51.042;7.066;2022-07-03T01:30:21;100418.72;;;16.37;87.31
3664;BME280;1848;51.042;7.066;2022-07-03T01:33:18;100421.13;;;16.26;89.09
3664;BME280;1848;51.042;7.066;2022-07-03T01:38:31;100413.41;;;16.11;87.38
3664;BME280;1848;51.042;7.066;2022-07-03T01:40:59;100415.97;;;16.06;88.26
3664;BME280;1848;51.042;7.066;2022-07-03T01:43:29;100410.03;;;15.98;88.22
3664;BME280;1848;51.042;7.066;2022-07-03T01:45:59;100405.31;;;15.93;88.31
3664;BME280;1848;51.042;7.066;2022-07-03T01:48:27;100412.00;;;15.90;89.05
3664;BME280;1848;51.042;7.066;2022-07-03T01:50:55;100409.28;;;15.90;88.17
3664;BME280;1848;51.042;7.066;2022-07-03T01:53:25;100414.06;;;15.88;88.61
3664;BME280;1848;51.042;7.066;2022-07-03T01:55:58;100409.78;;;15.81;87.42
3664;BME280;1848;51.042;7.066;2022-07-03T01:58:25;100404.63;;;15.79;88.39
3664;BME280;1848;51.042;7.066;2022-07-03T02:01:06;100397.59;;;15.78;89.00
3664;BME280;1848;51.042;7.066;2022-07-03T02:03:35;100387.84;;;15.77;88.53
3664;BME280;1848;51.042;7.066;2022-07-03T02:06:55;100392.66;;;15.75;89.45
3664;BME280;1848;51.042;7.066;2022-07-03T02:09:06;100378.97;;;15.70;88.15
3664;BME280;1848;51.042;7.066;2022-07-03T02:11:53;100383.31;;;15.71;89.05
3664;BME280;1848;51.042;7.066;2022-07-03T02:14:26;100384.38;;;15.70;88.43
3664;BME280;1848;51.042;7.066;2022-07-03T02:17:16;100385.63;;;15.67;88.40
3664;BME280;1848;51.042;7.066;2022-07-03T02:22:18;100384.97;;;15.72;85.88
3664;BME280;1848;51.042;7.066;2022-07-03T02:24:46;100387.03;;;15.76;89.09
3664;BME280;1848;51.042;7.066;2022-07-03T02:27:20;100373.81;;;15.68;87.29
3664;BME280;1848;51.042;7.066;2022-07-03T02:30:01;100402.53;;;15.81;86.76
3664;BME280;1848;51.042;7.066;2022-07-03T02:32:30;100400.91;;;15.80;87.41
3664;BME280;1848;51.042;7.066;2022-07-03T02:35:02;100404.03;;;15.77;89.28
3664;BME280;1848;51.042;7.066;2022-07-03T02:37:33;100402.66;;;15.68;87.29
3664;BME280;1848;51.042;7.066;2022-07-03T02:40:08;100401.25;;;15.58;87.61
3664;BME280;1848;51.042;7.066;2022-07-03T02:42:54;100402.31;;;15.57;86.47
3664;BME280;1848;51.042;7.066;2022-07-03T02:45:23;100393.88;;;15.54;87.50
3664;BME280;1848;51.042;7.066;2022-07-03T02:48:02;100389.66;;;15.58;88.05
3664;BME280;1848;51.042;7.066;2022-07-03T02:50:33;100408.41;;;15.71;89.15
3664;BME280;1848;51.042;7.066;2022-07-03T02:53:20;100408.19;;;15.73;88.81
3664;BME280;1848;51.042;7.066;2022-07-03T02:55:48;100404.84;;;15.77;88.07
3664;BME280;1848;51.042;7.066;2022-07-03T02:58:44;100415.63;;;15.77;86.76
3664;BME280;1848;51.042;7.066;2022-07-03T03:01:21;100406.31;;;15.73;86.24
3664;BME280;1848;51.042;7.066;2022-07-03T03:04:06;100400.09;;;15.73;88.40
3664;BME280;1848;51.042;7.066;2022-07-03T03:06:37;100410.47;;;15.76;87.62
3664;BME280;1848;51.042;7.066;2022-07-03T03:09:04;100384.88;;;15.60;87.70
3664;BME280;1848;51.042;7.066;2022-07-03T03:11:43;100413.34;;;15.74;86.68
3664;BME280;1848;51.042;7.066;2022-07-03T03:14:12;100406.75;;;15.70;86.67
3664;BME280;1848;51.042;7.066;2022-07-03T03:16:46;100408.03;;;15.68;87.63
3664;BME280;1848;51.042;7.066;2022-07-03T03:19:13;100407.88;;;15.63;88.67
3664;BME280;1848;51.042;7.066;2022-07-03T03:21:58;100411.00;;;15.59;88.47
3664;BME280;1848;51.042;7.066;2022-07-03T03:24:30;100410.41;;;15.57;88.98
3664;BME280;1848;51.042;7.066;2022-07-03T03:26:57;100410.63;;;15.56;88.64
3664;BME280;1848;51.042;7.066;2022-07-03T03:29:25;100417.66;;;15.57;90.96
3664;BME280;1848;51.042;7.066;2022-07-03T03:31:52;100413.91;;;15.58;89.61
3664;BME280;1848;51.042;7.066;2022-07-03T03:34:20;100420.13;;;15.58;88.48
3664;BME280;1848;51.042;7.066;2022-07-03T03:36:46;100427.78;;;15.62;89.39
3664;BME280;1848;51.042;7.066;2022-07-03T03:39:13;100425.91;;;15.62;89.05
3664;BME280;1848;51.042;7.066;2022-07-03T03:41:40;100430.25;;;15.63;87.69
3664;BME280;1848;51.042;7.066;2022-07-03T03:44:06;100429.19;;;15.64;89.18
3664;BME280;1848;51.042;7.066;2022-07-03T03:46:33;100432.72;;;15.65;89.84
3664;BME280;1848;51.042;7.066;2022-07-03T03:49:00;100425.25;;;15.67;89.87
3664;BME280;1848;51.042;7.066;2022-07-03T03:51:26;100423.59;;;15.66;89.78
3664;BME280;1848;51.042;7.066;2022-07-03T03:53:53;100415.34;;;15.61;89.14
3664;BME280;1848;51.042;7.066;2022-07-03T03:56:19;100427.78;;;15.62;89.17
3664;BME280;1848;51.042;7.066;2022-07-03T03:58:46;100428.59;;;15.62;88.67
3664;BME280;1848;51.042;7.066;2022-07-03T04:01:12;100437.53;;;15.63;88.15
3664;BME280;1848;51.042;7.066;2022-07-03T04:03:39;100426.75;;;15.63;87.81
3664;BME280;1848;51.042;7.066;2022-07-03T04:06:07;100437.53;;;15.63;88.10
3664;BME280;1848;51.042;7.066;2022-07-03T04:08:34;100441.63;;;15.65;87.38
3664;BME280;1848;51.042;7.066;2022-07-03T04:11:00;100429.34;;;15.69;86.65
3664;BME280;1848;51.042;7.066;2022-07-03T04:13:27;100434.72;;;15.76;88.47
3664;BME280;1848;51.042;7.066;2022-07-03T04:15:54;100444.78;;;15.87;89.60
3664;BME280;1848;51.042;7.066;2022-07-03T04:18:22;100442.03;;;15.94;88.10
3664;BME280;1848;51.042;7.066;2022-07-03T04:20:48;100445.03;;;16.04;89.67
3664;BME280;1848;51.042;7.066;2022-07-03T04:23:15;100442.28;;;16.11;87.76
3664;BME280;1848;51.042;7.066;2022-07-03T04:25:41;100441.13;;;16.19;88.57
3664;BME280;1848;51.042;7.066;2022-07-03T04:28:08;100442.56;;;16.21;89.87
3664;BME280;1848;51.042;7.066;2022-07-03T04:30:45;100444.34;;;16.27;89.91
3664;BME280;1848;51.042;7.066;2022-07-03T04:33:11;100455.44;;;16.38;89.20
3664;BME280;1848;51.042;7.066;2022-07-03T04:35:38;100460.63;;;16.39;89.97
3664;BME280;1848;51.042;7.066;2022-07-03T04:38:04;100448.25;;;16.31;93.23
3664;BME280;1848;51.042;7.066;2022-07-03T04:40:30;100470.53;;;16.45;93.14
3664;BME280;1848;51.042;7.066;2022-07-03T04:42:57;100474.63;;;16.48;92.53
3664;BME280;1848;51.042;7.066;2022-07-03T04:45:23;100468.56;;;16.52;90.99
3664;BME280;1848;51.042;7.066;2022-07-03T04:47:50;100473.91;;;16.59;90.58
3664;BME280;1848;51.042;7.066;2022-07-03T04:50:16;100448.25;;;16.50;88.74
3664;BME280;1848;51.042;7.066;2022-07-03T04:52:42;100478.50;;;16.70;89.26
3664;BME280;1848;51.042;7.066;2022-07-03T04:55:09;100462.97;;;16.66;89.59
3664;BME280;1848;51.042;7.066;2022-07-03T04:57:36;100464.78;;;16.72;88.29
3664;BME280;1848;51.042;7.066;2022-07-03T05:00:04;100459.97;;;16.74;84.75
3664;BME280;1848;51.042;7.066;2022-07-03T05:02:30;100462.91;;;16.73;87.03
3664;BME280;1848;51.042;7.066;2022-07-03T05:04:57;100461.28;;;16.71;88.18
3664;BME280;1848;51.042;7.066;2022-07-03T05:07:23;100455.50;;;16.68;88.78
3664;BME280;1848;51.042;7.066;2022-07-03T05:09:49;100457.59;;;16.66;88.13
3664;BME280;1848;51.042;7.066;2022-07-03T05:12:16;100467.34;;;16.67;87.71
3664;BME280;1848;51.042;7.066;2022-07-03T05:14:42;100470.41;;;16.70;87.46
3664;BME280;1848;51.042;7.066;2022-07-03T05:17:09;100469.97;;;16.74;87.16
3664;BME280;1848;51.042;7.066;2022-07-03T05:19:37;100479.25;;;16.78;83.34
3664;BME280;1848;51.042;7.066;2022-07-03T05:22:04;100498.28;;;16.83;82.62
3664;BME280;1848;51.042;7.066;2022-07-03T05:24:31;100495.19;;;16.86;83.15
3664;BME280;1848;51.042;7.066;2022-07-03T05:26:57;100489.31;;;16.89;85.07
3664;BME280;1848;51.042;7.066;2022-07-03T05:29:23;100486.03;;;16.87;86.67
3664;BME280;1848;51.042;7.066;2022-07-03T05:31:50;100496.63;;;16.88;85.75
3664;BME280;1848;51.042;7.066;2022-07-03T05:34:16;100492.63;;;16.91;84.77
3664;BME280;1848;51.042;7.066;2022-07-03T05:36:43;100493.22;;;16.93;85.84
3664;BME280;1848;51.042;7.066;2022-07-03T05:39:09;100494.66;;;16.96;85.14
3664;BME280;1848;51.042;7.066;2022-07-03T05:41:54;100500.63;;;16.98;83.58
3664;BME280;1848;51.042;7.066;2022-07-03T05:44:20;100475.06;;;16.82;82.67
3664;BME280;1848;51.042;7.066;2022-07-03T05:46:46;100512.25;;;16.98;84.60
3664;BME280;1848;51.042;7.066;2022-07-03T05:49:14;100523.50;;;16.95;82.48
3664;BME280;1848;51.042;7.066;2022-07-03T05:51:40;100516.69;;;16.93;83.74
3664;BME280;1848;51.042;7.066;2022-07-03T05:54:07;100511.75;;;16.89;85.06
3664;BME280;1848;51.042;7.066;2022-07-03T05:56:34;100512.25;;;16.98;85.07
3664;BME280;1848;51.042;7.066;2022-07-03T05:59:01;100504.53;;;17.02;87.46
3664;BME280;1848;51.042;7.066;2022-07-03T06:01:27;100488.16;;;16.97;85.69
3664;BME280;1848;51.042;7.066;2022-07-03T06:03:54;100509.38;;;17.12;87.11
3664;BME280;1848;51.042;7.066;2022-07-03T06:06:20;100515.75;;;17.17;87.78
3664;BME280;1848;51.042;7.066;2022-07-03T06:08:46;100517.75;;;17.22;85.71
3664;BME280;1848;51.042;7.066;2022-07-03T06:11:13;100518.94;;;17.26;85.65
3664;BME280;1848;51.042;7.066;2022-07-03T06:13:39;100515.78;;;17.29;83.26
3664;BME280;1848;51.042;7.066;2022-07-03T06:16:06;100521.56;;;17.33;84.66
3664;BME280;1848;51.042;7.066;2022-07-03T06:18:32;100520.66;;;17.39;84.48
3664;BME280;1848;51.042;7.066;2022-07-03T06:20:58;100523.13;;;17.40;84.49
3664;BME280;1848;51.042;7.066;2022-07-03T06:23:25;100533.22;;;17.45;81.89
3664;BME280;1848;51.042;7.066;2022-07-03T06:26:11;100514.19;;;17.52;84.18
3664;BME280;1848;51.042;7.066;2022-07-03T06:28:38;100516.22;;;17.56;81.63
3664;BME280;1848;51.042;7.066;2022-07-03T06:31:04;100524.81;;;17.65;84.35
3664;BME280;1848;51.042;7.066;2022-07-03T06:33:30;100523.50;;;17.68;82.61
3664;BME280;1848;51.042;7.066;2022-07-03T06:35:57;100514.59;;;17.67;82.79
3664;BME280;1848;51.042;7.066;2022-07-03T06:38:23;100529.53;;;17.81;83.27
3664;BME280;1848;51.042;7.066;2022-07-03T06:40:50;100540.28;;;17.88;80.86
3664;BME280;1848;51.042;7.066;2022-07-03T06:43:16;100525.59;;;17.96;79.37
3664;BME280;1848;51.042;7.066;2022-07-03T06:45:43;100522.53;;;18.04;78.14
3664;BME280;1848;51.042;7.066;2022-07-03T06:48:09;100527.34;;;18.14;79.36
3664;BME280;1848;51.042;7.066;2022-07-03T06:50:36;100526.41;;;18.20;78.73
3664;BME280;1848;51.042;7.066;2022-07-03T06:53:02;100532.53;;;18.27;76.56
3664;BME280;1848;51.042;7.066;2022-07-03T06:55:29;100527.56;;;18.36;77.90
3664;BME280;1848;51.042;7.066;2022-07-03T06:57:55;100532.63;;;18.44;76.48
3664;BME280;1848;51.042;7.066;2022-07-03T07:00:21;100532.28;;;18.52;73.79
3664;BME280;1848;51.042;7.066;2022-07-03T07:02:48;100543.31;;;18.63;73.63
3664;BME280;1848;51.042;7.066;2022-07-03T07:05:14;100524.38;;;18.63;73.83
3664;BME280;1848;51.042;7.066;2022-07-03T07:07:41;100534.44;;;18.79;75.75
3664;BME280;1848;51.042;7.066;2022-07-03T07:10:07;100530.56;;;18.87;74.99
3664;BME280;1848;51.042;7.066;2022-07-03T07:12:34;100536.44;;;18.95;73.06
3664;BME280;1848;51.042;7.066;2022-07-03T07:15:04;100530.63;;;19.04;73.68
3664;BME280;1848;51.042;7.066;2022-07-03T07:17:31;100533.44;;;19.09;73.01
3664;BME280;1848;51.042;7.066;2022-07-03T07:19:57;100527.03;;;19.15;70.67
3664;BME280;1848;51.042;7.066;2022-07-03T07:22:23;100529.03;;;19.20;71.66
3664;BME280;1848;51.042;7.066;2022-07-03T07:24:52;100534.91;;;19.28;73.30
3664;BME280;1848;51.042;7.066;2022-07-03T07:27:18;100529.06;;;19.37;71.24
3664;BME280;1848;51.042;7.066;2022-07-03T07:29:45;100512.31;;;19.40;70.74
3664;BME280;1848;51.042;7.066;2022-07-03T07:32:12;100523.66;;;19.54;68.70
3664;BME280;1848;51.042;7.066;2022-07-03T07:34:38;100525.88;;;19.57;69.23
3664;BME280;1848;51.042;7.066;2022-07-03T07:37:05;100532.22;;;19.62;68.60
3664;BME280;1848;51.042;7.066;2022-07-03T07:39:32;100517.91;;;19.67;76.05
3664;BME280;1848;51.042;7.066;2022-07-03T07:41:58;100531.47;;;19.67;69.71
3664;BME280;1848;51.042;7.066;2022-07-03T07:44:25;100526.16;;;19.72;67.46
3664;BME280;1848;51.042;7.066;2022-07-03T07:46:51;100527.91;;;19.78;67.16
3664;BME280;1848;51.042;7.066;2022-07-03T07:49:18;100530.13;;;19.81;66.01
3664;BME280;1848;51.042;7.066;2022-07-03T07:51:44;100527.16;;;19.83;66.90
3664;BME280;1848;51.042;7.066;2022-07-03T07:54:11;100524.19;;;19.84;63.35
3664;BME280;1848;51.042;7.066;2022-07-03T07:56:37;100530.03;;;19.93;65.98
3664;BME280;1848;51.042;7.066;2022-07-03T07:59:03;100520.59;;;19.96;66.44
3664;BME280;1848;51.042;7.066;2022-07-03T08:01:30;100523.69;;;20.04;63.52
3664;BME280;1848;51.042;7.066;2022-07-03T08:04:14;100524.09;;;20.13;63.31
3664;BME280;1848;51.042;7.066;2022-07-03T08:06:59;100525.72;;;20.14;64.43
3664;BME280;1848;51.042;7.066;2022-07-03T08:09:26;100529.38;;;20.20;63.63
3664;BME280;1848;51.042;7.066;2022-07-03T08:11:52;100532.53;;;20.34;61.44
3664;BME280;1848;51.042;7.066;2022-07-03T08:14:18;100535.97;;;20.46;63.94
3664;BME280;1848;51.042;7.066;2022-07-03T08:16:45;100531.22;;;20.58;63.62
3664;BME280;1848;51.042;7.066;2022-07-03T08:19:13;100530.91;;;20.72;60.84
3664;BME280;1848;51.042;7.066;2022-07-03T08:21:40;100530.78;;;20.84;62.28
3664;BME280;1848;51.042;7.066;2022-07-03T08:24:07;100529.50;;;20.91;62.62
3664;BME280;1848;51.042;7.066;2022-07-03T08:26:34;100529.84;;;21.00;62.95
3664;BME280;1848;51.042;7.066;2022-07-03T08:29:00;100530.47;;;21.07;62.45
3664;BME280;1848;51.042;7.066;2022-07-03T08:31:26;100535.97;;;21.12;66.05
3664;BME280;1848;51.042;7.066;2022-07-03T08:33:53;100537.94;;;21.17;62.47
3664;BME280;1848;51.042;7.066;2022-07-03T08:36:19;100549.41;;;21.24;63.62
3664;BME280;1848;51.042;7.066;2022-07-03T08:38:46;100541.06;;;21.31;63.14
3664;BME280;1848;51.042;7.066;2022-07-03T08:41:13;100544.44;;;21.43;61.84
3664;BME280;1848;51.042;7.066;2022-07-03T08:43:42;100522.69;;;21.43;61.61
3664;BME280;1848;51.042;7.066;2022-07-03T08:46:10;100546.31;;;21.65;60.69
3664;BME280;1848;51.042;7.066;2022-07-03T08:48:37;100535.53;;;21.75;61.30
3664;BME280;1848;51.042;7.066;2022-07-03T08:51:06;100540.72;;;21.82;59.53
3664;BME280;1848;51.042;7.066;2022-07-03T08:53:32;100537.56;;;21.95;58.43
3664;BME280;1848;51.042;7.066;2022-07-03T08:56:00;100542.84;;;22.12;57.39
3664;BME280;1848;51.042;7.066;2022-07-03T08:58:29;100536.25;;;22.40;58.81
3664;BME280;1848;51.042;7.066;2022-07-03T09:00:56;100521.84;;;22.50;56.06
3664;BME280;1848;51.042;7.066;2022-07-03T09:03:24;100538.38;;;22.86;58.67
3664;BME280;1848;51.042;7.066;2022-07-03T09:05:51;100534.88;;;23.01;57.72
3664;BME280;1848;51.042;7.066;2022-07-03T09:08:18;100545.56;;;23.18;54.83
3664;BME280;1848;51.042;7.066;2022-07-03T09:10:45;100545.59;;;23.23;54.67
3664;BME280;1848;51.042;7.066;2022-07-03T09:13:12;100544.53;;;23.39;52.78
3664;BME280;1848;51.042;7.066;2022-07-03T09:15:39;100549.19;;;23.39;53.13
3664;BME280;1848;51.042;7.066;2022-07-03T09:18:07;100547.81;;;23.57;52.13
3664;BME280;1848;51.042;7.066;2022-07-03T09:20:36;100544.03;;;23.68;52.93
3664;BME280;1848;51.042;7.066;2022-07-03T09:23:10;100542.13;;;23.94;53.98
3664;BME280;1848;51.042;7.066;2022-07-03T09:25:59;100543.97;;;24.19;51.67
3664;BME280;1848;51.042;7.066;2022-07-03T09:28:51;100549.94;;;24.42;50.83
3664;BME280;1848;51.042;7.066;2022-07-03T09:31:22;100555.94;;;24.65;50.97
3664;BME280;1848;51.042;7.066;2022-07-03T09:34:06;100542.19;;;24.85;49.04
3664;BME280;1848;51.042;7.066;2022-07-03T09:36:43;100554.88;;;25.16;49.43
3664;BME280;1848;51.042;7.066;2022-07-03T09:39:13;100551.56;;;25.19;46.95
3664;BME280;1848;51.042;7.066;2022-07-03T09:41:58;100545.81;;;25.20;46.67
3664;BME280;1848;51.042;7.066;2022-07-03T09:52:29;100552.03;;;26.10;45.79
3664;BME280;1848;51.042;7.066;2022-07-03T09:55:16;100555.56;;;26.64;44.88
3664;BME280;1848;51.042;7.066;2022-07-03T10:00:28;100530.13;;;27.21;43.65
3664;BME280;1848;51.042;7.066;2022-07-03T10:02:57;100547.28;;;27.50;44.24
3664;BME280;1848;51.042;7.066;2022-07-03T10:05:31;100549.53;;;27.81;40.82
3664;BME280;1848;51.042;7.066;2022-07-03T10:08:15;100542.00;;;28.34;39.79
3664;BME280;1848;51.042;7.066;2022-07-03T10:10:46;100541.31;;;28.56;40.81
3664;BME280;1848;51.042;7.066;2022-07-03T10:13:14;100552.50;;;28.87;41.00
3664;BME280;1848;51.042;7.066;2022-07-03T10:15:42;100542.56;;;29.14;38.62
3664;BME280;1848;51.042;7.066;2022-07-03T10:18:11;100540.09;;;29.26;38.66
3664;BME280;1848;51.042;7.066;2022-07-03T10:20:49;100550.03;;;29.72;41.80
3664;BME280;1848;51.042;7.066;2022-07-03T10:23:17;100555.22;;;29.96;38.76
3664;BME280;1848;51.042;7.066;2022-07-03T10:25:46;100548.97;;;30.36;38.32
3664;BME280;1848;51.042;7.066;2022-07-03T10:28:15;100551.47;;;30.55;36.27
3664;BME280;1848;51.042;7.066;2022-07-03T10:30:43;100558.34;;;30.35;36.40
3664;BME280;1848;51.042;7.066;2022-07-03T10:33:10;100554.22;;;30.55;37.12
3664;BME280;1848;51.042;7.066;2022-07-03T10:35:39;100539.81;;;30.76;37.37
3664;BME280;1848;51.042;7.066;2022-07-03T10:40:59;100555.66;;;31.19;35.39
3664;BME280;1848;51.042;7.066;2022-07-03T10:43:46;100552.59;;;31.20;35.40
3664;BME280;1848;51.042;7.066;2022-07-03T10:46:32;100552.41;;;31.43;36.44
3664;BME280;1848;51.042;7.066;2022-07-03T10:51:59;100543.53;;;32.11;33.66
3664;BME280;1848;51.042;7.066;2022-07-03T10:54:30;100544.50;;;32.15;32.99
3664;BME280;1848;51.042;7.066;2022-07-03T11:02:26;100540.09;;;32.91;30.71
3664;BME280;1848;51.042;7.066;2022-07-03T11:07:24;100533.78;;;32.52;31.32
3664;BME280;1848;51.042;7.066;2022-07-03T11:13:03;100526.50;;;32.38;36.23
3664;BME280;1848;51.042;7.066;2022-07-03T11:26:02;100527.72;;;33.30;31.70
3664;BME280;1848;51.042;7.066;2022-07-03T11:36:23;100517.44;;;33.10;28.50
3664;BME280;1848;51.042;7.066;2022-07-03T11:41:30;100512.13;;;33.26;29.83
3664;BME280;1848;51.042;7.066;2022-07-03T11:44:02;100515.66;;;33.14;30.74
3664;BME280;1848;51.042;7.066;2022-07-03T11:46:37;100521.38;;;33.30;29.86
3664;BME280;1848;51.042;7.066;2022-07-03T11:51:31;100519.81;;;33.41;30.16
3664;BME280;1848;51.042;7.066;2022-07-03T11:53:57;100516.03;;;33.04;31.70
3664;BME280;1848;51.042;7.066;2022-07-03T11:56:24;100516.03;;;32.83;32.07
3664;BME280;1848;51.042;7.066;2022-07-03T11:58:56;100516.59;;;32.67;31.37
3664;BME280;1848;51.042;7.066;2022-07-03T12:09:24;100491.78;;;29.20;36.18
3664;BME280;1848;51.042;7.066;2022-07-03T12:11:58;100492.19;;;29.13;36.30
3664;BME280;1848;51.042;7.066;2022-07-03T12:19:46;100492.56;;;30.68;34.94
3664;BME280;1848;51.042;7.066;2022-07-03T12:22:25;100479.75;;;31.25;33.64
3664;BME280;1848;51.042;7.066;2022-07-03T12:25:09;100490.16;;;31.45;33.82
3664;BME280;1848;51.042;7.066;2022-07-03T12:27:41;100466.59;;;31.39;34.14
3664;BME280;1848;51.042;7.066;2022-07-03T12:30:15;100484.47;;;31.59;33.27
3664;BME280;1848;51.042;7.066;2022-07-03T12:32:51;100495.28;;;31.82;33.41
3664;BME280;1848;51.042;7.066;2022-07-03T12:35:21;100485.41;;;31.72;31.48
3664;BME280;1848;51.042;7.066;2022-07-03T12:37:48;100486.09;;;31.60;32.70
3664;BME280;1848;51.042;7.066;2022-07-03T12:40:15;100491.63;;;31.60;33.09
3664;BME280;1848;51.042;7.066;2022-07-03T12:42:45;100480.41;;;31.48;32.36
3664;BME280;1848;51.042;7.066;2022-07-03T12:45:14;100479.13;;;31.28;32.12
3664;BME280;1848;51.042;7.066;2022-07-03T12:47:43;100474.41;;;31.11;32.48
3664;BME280;1848;51.042;7.066;2022-07-03T12:50:10;100469.88;;;31.24;32.21
3664;BME280;1848;51.042;7.066;2022-07-03T12:52:51;100475.38;;;31.41;34.96
3664;BME280;1848;51.042;7.066;2022-07-03T12:55:25;100468.03;;;31.54;33.64
3664;BME280;1848;51.042;7.066;2022-07-03T12:58:11;100464.00;;;31.52;33.09
3664;BME280;1848;51.042;7.066;2022-07-03T13:00:57;100469.53;;;30.99;32.43
3664;BME280;1848;51.042;7.066;2022-07-03T13:03:31;100474.56;;;31.06;34.80
3664;BME280;1848;51.042;7.066;2022-07-03T13:06:14;100479.28;;;31.23;36.03
3664;BME280;1848;51.042;7.066;2022-07-03T13:08:52;100469.22;;;31.01;33.50
3664;BME280;1848;51.042;7.066;2022-07-03T13:14:07;100482.53;;;29.38;35.66
3664;BME280;1848;51.042;7.066;2022-07-03T13:16:39;100465.81;;;28.76;36.58
3664;BME280;1848;51.042;7.066;2022-07-03T13:19:07;100476.44;;;28.41;37.74
3664;BME280;1848;51.042;7.066;2022-07-03T13:21:34;100474.59;;;28.36;36.21
3664;BME280;1848;51.042;7.066;2022-07-03T13:24:02;100476.00;;;28.34;37.24
3664;BME280;1848;51.042;7.066;2022-07-03T13:26:29;100466.31;;;28.50;38.89
3664;BME280;1848;51.042;7.066;2022-07-03T13:28:56;100456.56;;;28.30;37.67
3664;BME280;1848;51.042;7.066;2022-07-03T13:31:22;100469.78;;;28.42;38.10
3664;BME280;1848;51.042;7.066;2022-07-03T13:33:49;100465.44;;;28.41;37.30
3664;BME280;1848;51.042;7.066;2022-07-03T13:36:15;100445.41;;;28.77;36.21
3664;BME280;1848;51.042;7.066;2022-07-03T13:38:45;100479.16;;;29.05;36.66
3664;BME280;1848;51.042;7.066;2022-07-03T13:41:12;100477.75;;;29.30;35.57
3664;BME280;1848;51.042;7.066;2022-07-03T13:43:38;100476.56;;;29.45;35.18
3664;BME280;1848;51.042;7.066;2022-07-03T13:46:05;100478.41;;;29.50;35.60
3664;BME280;1848;51.042;7.066;2022-07-03T13:48:32;100473.69;;;29.50;38.96
3664;BME280;1848;51.042;7.066;2022-07-03T13:50:58;100481.94;;;29.73;35.92
3664;BME280;1848;51.042;7.066;2022-07-03T13:53:24;100478.94;;;29.83;35.21
3664;BME280;1848;51.042;7.066;2022-07-03T13:55:51;100479.75;;;29.61;34.67
3664;BME280;1848;51.042;7.066;2022-07-03T13:58:19;100477.31;;;29.37;37.56
3664;BME280;1848;51.042;7.066;2022-07-03T14:00:46;100473.34;;;29.07;36.54
3664;BME280;1848;51.042;7.066;2022-07-03T14:03:12;100475.50;;;28.59;36.74
3664;BME280;1848;51.042;7.066;2022-07-03T14:05:40;100482.03;;;28.22;36.58
3664;BME280;1848;51.042;7.066;2022-07-03T14:08:06;100468.81;;;27.77;38.29
3664;BME280;1848;51.042;7.066;2022-07-03T14:10:33;100459.06;;;27.85;38.10
3664;BME280;1848;51.042;7.066;2022-07-03T14:12:59;100468.09;;;27.85;39.91
3664;BME280;1848;51.042;7.066;2022-07-03T14:15:26;100482.53;;;27.63;38.45
3664;BME280;1848;51.042;7.066;2022-07-03T14:17:52;100469.44;;;27.22;39.40
3664;BME280;1848;51.042;7.066;2022-07-03T14:20:19;100471.88;;;27.24;40.92
3664;BME280;1848;51.042;7.066;2022-07-03T14:22:45;100474.34;;;27.25;39.92
3664;BME280;1848;51.042;7.066;2022-07-03T14:25:16;100477.41;;;27.05;38.76
3664;BME280;1848;51.042;7.066;2022-07-03T14:27:42;100478.19;;;26.67;40.02
3664;BME280;1848;51.042;7.066;2022-07-03T14:30:27;100471.72;;;26.58;40.93
3664;BME280;1848;51.042;7.066;2022-07-03T14:33:12;100471.53;;;26.73;40.35
3664;BME280;1848;51.042;7.066;2022-07-03T14:35:39;100480.66;;;26.88;40.32
3664;BME280;1848;51.042;7.066;2022-07-03T14:38:05;100467.44;;;27.09;40.72
3664;BME280;1848;51.042;7.066;2022-07-03T14:40:32;100455.28;;;27.15;39.69
3664;BME280;1848;51.042;7.066;2022-07-03T14:42:58;100479.34;;;27.56;39.56
3664;BME280;1848;51.042;7.066;2022-07-03T14:45:25;100488.66;;;27.74;40.00
3664;BME280;1848;51.042;7.066;2022-07-03T14:47:51;100482.66;;;27.39;38.71
3664;BME280;1848;51.042;7.066;2022-07-03T14:50:18;100494.44;;;26.83;40.03